Погода Сандатовскийна 2 недели

Ростовская область, Россия

20 мая-02 июня
  • 20мая
    Сегодня
    +11°
    +22°
    Практически безоблачно
    ВремяПогодаТемператураВлажностьДавлениеВетер, м/сВероятность осадков
    00:00Ясно и безоблачно+12°C91 %754 мм2.3 м/с2 %
    03:00Ясно и безоблачно+11°C88 %754 мм2.2 м/с2 %
    06:00Практически безоблачно+12°C85 %755 мм1.9 м/с2 %
    09:00Практически безоблачно+18°C65 %756 мм1.0 м/с2 %
    12:00Ясно и безоблачно+21°C49 %755 мм2.9 м/с1 %
    15:00Практически безоблачно+23°C43 %755 мм2.5 м/с3 %
    18:00Ясно и безоблачно+22°C47 %755 мм2.5 м/с2 %
    21:00Ясно и безоблачно+16°C68 %756 мм2.4 м/с2 %
  • 21мая
    Вторник
    +12°
    +25°
    Ясно и безоблачно
    ВремяПогодаТемператураВлажностьДавлениеВетер, м/сВероятность осадков
    00:00Ясно и безоблачно+14°C73 %756 мм2.3 м/с2 %
    03:00Ясно и безоблачно+13°C80 %756 мм2.2 м/с2 %
    06:00Ясно и безоблачно+14°C74 %757 мм2.9 м/с2 %
    09:00Ясно и безоблачно+21°C53 %758 мм2.4 м/с2 %
    12:00Ясно и безоблачно+24°C34 %758 мм4.1 м/с2 %
    15:00Ясно и безоблачно+25°C29 %757 мм4.5 м/с2 %
    18:00Ясно и безоблачно+23°C37 %756 мм3.4 м/с2 %
    21:00Ясно и безоблачно+17°C41 %756 мм3.0 м/с2 %
  • 22мая
    Среда
    +11°
    +26°
    Ясно и безоблачно
    ВремяПогодаТемператураВлажностьДавлениеВетер, м/сВероятность осадков
    00:00Ясно и безоблачно+15°C42 %756 мм3.5 м/с2 %
    03:00Ясно и безоблачно+13°C43 %756 мм3.6 м/с2 %
    06:00Ясно и безоблачно+13°C52 %756 мм3.4 м/с2 %
    09:00Ясно и безоблачно+21°C51 %756 мм3.2 м/с2 %
    12:00Ясно и безоблачно+25°C31 %756 мм5.5 м/с2 %
    15:00Ясно и безоблачно+25°C30 %755 мм5.7 м/с2 %
    18:00Ясно и безоблачно+24°C37 %754 мм4.1 м/с2 %
    21:00Ясно и безоблачно+18°C40 %754 мм3.7 м/с2 %
  • 23мая
    Четверг
    +13°
    +26°
    Ясно и безоблачно
    ВремяПогодаТемператураВлажностьДавлениеВетер, м/сВероятность осадков
    00:00Ясно и безоблачно+16°C50 %754 мм3.4 м/с2 %
    03:00Ясно и безоблачно+13°C57 %754 мм3.0 м/с2 %
    06:00Ясно и безоблачно+12°C62 %754 мм3.7 м/с2 %
    09:00Ясно и безоблачно+19°C50 %755 мм3.9 м/с2 %
    12:00Ясно и безоблачно+23°C32 %754 мм5.4 м/с2 %
    15:00Ясно и безоблачно+25°C27 %754 мм5.6 м/с2 %
    18:00Ясно и безоблачно+24°C33 %753 мм4.8 м/с2 %
    21:00Ясно и безоблачно+20°C36 %754 мм4.4 м/с2 %
  • 24мая
    Пятница
    +13°
    +26°
    Ясно и безоблачно
    ВремяПогодаТемператураВлажностьДавлениеВетер, м/сВероятность осадков
    00:00Ясно и безоблачно+18°C42 %754 мм4.8 м/с2 %
    03:00Ясно и безоблачно+15°C52 %754 мм4.8 м/с2 %
    06:00Ясно и безоблачно+15°C60 %755 мм5.5 м/с2 %
    09:00Ясно и безоблачно+21°C60 %756 мм6.8 м/с2 %
    12:00Ясно и безоблачно+25°C46 %756 мм8.0 м/с2 %
    15:00Ясно и безоблачно+26°C37 %756 мм8.7 м/с2 %
    18:00Практически безоблачно+24°C37 %756 мм7.6 м/с3 %
    21:00Ясно и безоблачно+20°C33 %757 мм8.0 м/с2 %
Мы используем cookies
Соглашаюсь